Terminal Aerodrome Forecast
Issued by NWS Detroit/Pontiac, MI

Home | Current Version | Previous Version | Text Only | Print | Product List | Glossary On
Versions: 1 2 3 4 5 6 7 8 9 10 11 12 13 14 15 16 17 18 19 20 21 22 23 24 25 26
000
FTUS43 KDTX 190201 AAA
TAFDTW
TAF AMD
KDTW 190201Z 1902/2006 28012KT P6SM BKN045
     FM190300 26008KT P6SM SCT050 SCT250
     FM190900 23005KT P6SM OVC050 PROB30 1911/1914 6SM -SHRA OVC035
     FM191700 28007KT P6SM SCT050
     FM200000 VRB03KT P6SM SKC=

USA.gov is the U.S. government's official web portal to all federal, state and local government web resources and services.